Mt Champion Express — A8QN4 — position and weather

sailwx.info

Track history (hours):
 
Tides and Currents Weather Stations Pressure Air Temp Water Temp Dewpoint Dewpoint Depression Visibility Wind Speed Wind Dir Waves Ship Positions

Mt Champion Express

Last reported at 2018-May-24 06:00 UTC. Time now 2018-May-24 06:27 UTC.
Position N 33°37' W 118°12'.

Length 192 m; draft 7 m.

Type: Tanker. MMSI: 636013968.

Date/timePositionNaut miles runAvg speedWind from/ knotsBaromVisibWave heightAir tempDewpointWater temp
2018-May-24 06:00N 33°37' W 118°12'2212.0
2018-May-24 04:13N 33°17' W 118°02'312.7
2018-May-24 04:01N 33°14' W 118°01'612.7
2018-May-24 03:30N 33°08' W 117°58'612.7
2018-May-24 03:01N 33°03' W 117°55'612.6
2018-May-24 02:31N 32°57' W 117°52'612.6
2018-May-24 02:01N 32°51' W 117°50'612.6
2018-May-24 01:30N 32°45' W 117°47'612.1
2018-May-24 01:01N 32°39' W 117°44'5 9.7
2018-May-24 00:27N 32°34' W 117°42'512.1
2018-May-24 00:01N 32°29' W 117°40'  
Track history (hours):
 
Tides and Currents Weather Stations Pressure Air Temp Water Temp Dewpoint Dewpoint Depression Visibility Wind Speed Wind Dir Waves Ship Positions

Mt Champion Express

Last reported at 2018-May-24 06:00 UTC. Time now 2018-May-24 06:27 UTC.
Position N 33°37' W 118°12'.

Length 192 m; draft 7 m.

Type: Tanker. MMSI: 636013968.

Date/timePositionNaut miles runAvg speedWind from/ knotsBaromVisibWave heightAir tempDewpointWater temp
2018-May-24 06:00N 33°37' W 118°12'2212.0
2018-May-24 04:13N 33°17' W 118°02'312.7
2018-May-24 04:01N 33°14' W 118°01'612.7
2018-May-24 03:30N 33°08' W 117°58'612.7
2018-May-24 03:01N 33°03' W 117°55'612.6
2018-May-24 02:31N 32°57' W 117°52'612.6
2018-May-24 02:01N 32°51' W 117°50'612.6
2018-May-24 01:30N 32°45' W 117°47'612.1
2018-May-24 01:01N 32°39' W 117°44'5 9.7
2018-May-24 00:27N 32°34' W 117°42'512.1
2018-May-24 00:01N 32°29' W 117°40'  

Dump ship's entire track history